sensor_id;sensor_type;location;lat;lon;timestamp;pressure;altitude;pressure_sealevel;temperature;humidity
77939;BME280;67136;47.546;21.630;2023-08-01T00:00:58;99652.13;;;17.61;78.98
77939;BME280;67136;47.546;21.630;2023-08-01T00:04:01;99652.47;;;17.58;79.22
77939;BME280;67136;47.546;21.630;2023-08-01T00:07:04;99646.53;;;17.56;79.96
77939;BME280;67136;47.546;21.630;2023-08-01T00:10:06;99645.38;;;17.58;80.32
77939;BME280;67136;47.546;21.630;2023-08-01T00:13:09;99649.34;;;17.69;80.10
77939;BME280;67136;47.546;21.630;2023-08-01T00:16:12;99642.41;;;17.68;79.01
77939;BME280;67136;47.546;21.630;2023-08-01T00:19:14;99631.84;;;17.68;78.49
77939;BME280;67136;47.546;21.630;2023-08-01T00:22:17;99628.28;;;17.75;78.70
77939;BME280;67136;47.546;21.630;2023-08-01T00:25:20;99627.94;;;17.64;78.68
77939;BME280;67136;47.546;21.630;2023-08-01T00:28:23;99625.50;;;17.62;78.67
77939;BME280;67136;47.546;21.630;2023-08-01T00:31:25;99616.28;;;17.58;78.91
77939;BME280;67136;47.546;21.630;2023-08-01T00:34:28;99612.37;;;17.54;79.60
77939;BME280;67136;47.546;21.630;2023-08-01T00:37:30;99609.72;;;17.54;79.11
77939;BME280;67136;47.546;21.630;2023-08-01T00:40:34;99599.34;;;17.53;78.84
77939;BME280;67136;47.546;21.630;2023-08-01T00:43:36;99605.84;;;17.50;79.08
77939;BME280;67136;47.546;21.630;2023-08-01T00:46:39;99608.38;;;17.44;79.32
77939;BME280;67136;47.546;21.630;2023-08-01T00:49:42;99607.47;;;17.36;79.08
77939;BME280;67136;47.546;21.630;2023-08-01T00:52:46;99610.50;;;17.33;79.47
77939;BME280;67136;47.546;21.630;2023-08-01T00:55:52;99605.31;;;17.25;79.95
77939;BME280;67136;47.546;21.630;2023-08-01T00:58:55;99601.53;;;17.13;80.15
77939;BME280;67136;47.546;21.630;2023-08-01T01:02:01;99609.19;;;17.08;80.71
77939;BME280;67136;47.546;21.630;2023-08-01T01:05:04;99612.81;;;17.07;81.26
77939;BME280;67136;47.546;21.630;2023-08-01T01:08:07;99607.53;;;17.07;81.61
77939;BME280;67136;47.546;21.630;2023-08-01T01:11:10;99615.56;;;16.99;81.95
77939;BME280;67136;47.546;21.630;2023-08-01T01:14:13;99614.66;;;16.92;82.38
77939;BME280;67136;47.546;21.630;2023-08-01T01:17:16;99615.03;;;16.89;83.32
77939;BME280;67136;47.546;21.630;2023-08-01T01:20:25;99603.44;;;16.90;83.21
77939;BME280;67136;47.546;21.630;2023-08-01T01:23:28;99605.81;;;16.85;83.28
77939;BME280;67136;47.546;21.630;2023-08-01T01:26:32;99596.66;;;16.81;83.24
77939;BME280;67136;47.546;21.630;2023-08-01T01:29:36;99606.28;;;16.74;83.47
77939;BME280;67136;47.546;21.630;2023-08-01T01:32:39;99604.37;;;16.68;84.33
77939;BME280;67136;47.546;21.630;2023-08-01T01:35:42;99603.47;;;16.61;84.03
77939;BME280;67136;47.546;21.630;2023-08-01T01:38:45;99608.94;;;16.60;84.26
77939;BME280;67136;47.546;21.630;2023-08-01T01:41:48;99606.44;;;16.58;84.08
77939;BME280;67136;47.546;21.630;2023-08-01T01:44:51;99605.19;;;16.54;84.28
77939;BME280;67136;47.546;21.630;2023-08-01T01:47:54;99600.62;;;16.48;84.21
77939;BME280;67136;47.546;21.630;2023-08-01T01:50:56;99599.34;;;16.44;84.27
77939;BME280;67136;47.546;21.630;2023-08-01T01:53:59;99589.16;;;16.41;84.67
77939;BME280;67136;47.546;21.630;2023-08-01T01:57:01;99597.13;;;16.33;84.45
77939;BME280;67136;47.546;21.630;2023-08-01T02:00:05;99593.41;;;16.28;84.68
77939;BME280;67136;47.546;21.630;2023-08-01T02:03:13;99587.66;;;16.24;84.90
77939;BME280;67136;47.546;21.630;2023-08-01T02:06:16;99592.00;;;16.17;85.40
77939;BME280;67136;47.546;21.630;2023-08-01T02:09:19;99593.06;;;16.08;85.75
77939;BME280;67136;47.546;21.630;2023-08-01T02:12:22;99599.72;;;16.04;85.45
77939;BME280;67136;47.546;21.630;2023-08-01T02:15:24;99598.72;;;16.05;86.18
77939;BME280;67136;47.546;21.630;2023-08-01T02:18:27;99590.22;;;15.95;85.76
77939;BME280;67136;47.546;21.630;2023-08-01T02:21:29;99591.22;;;15.94;86.15
77939;BME280;67136;47.546;21.630;2023-08-01T02:24:32;99596.22;;;15.89;86.63
77939;BME280;67136;47.546;21.630;2023-08-01T02:27:35;99604.63;;;15.84;86.48
77939;BME280;67136;47.546;21.630;2023-08-01T02:30:38;99604.72;;;15.76;86.41
77939;BME280;67136;47.546;21.630;2023-08-01T02:33:41;99599.31;;;15.70;87.08
77939;BME280;67136;47.546;21.630;2023-08-01T02:36:44;99595.06;;;15.69;86.95
77939;BME280;67136;47.546;21.630;2023-08-01T02:39:46;99606.06;;;15.72;86.98
77939;BME280;67136;47.546;21.630;2023-08-01T02:42:49;99609.41;;;15.66;86.94
77939;BME280;67136;47.546;21.630;2023-08-01T02:45:51;99614.53;;;15.60;87.21
77939;BME280;67136;47.546;21.630;2023-08-01T02:48:54;99615.56;;;15.59;87.46
77939;BME280;67136;47.546;21.630;2023-08-01T02:51:56;99607.38;;;15.46;87.64
77939;BME280;67136;47.546;21.630;2023-08-01T02:54:59;99615.13;;;15.47;88.00
77939;BME280;67136;47.546;21.630;2023-08-01T02:58:02;99629.06;;;15.56;87.86
77939;BME280;67136;47.546;21.630;2023-08-01T03:01:08;99628.13;;;15.49;87.66
77939;BME280;67136;47.546;21.630;2023-08-01T03:04:12;99630.34;;;15.60;87.24
77939;BME280;67136;47.546;21.630;2023-08-01T03:07:15;99631.66;;;15.64;86.59
77939;BME280;67136;47.546;21.630;2023-08-01T03:10:17;99628.03;;;15.65;86.43
77939;BME280;67136;47.546;21.630;2023-08-01T03:13:37;99632.12;;;15.67;86.55
77939;BME280;67136;47.546;21.630;2023-08-01T03:16:40;99627.19;;;15.64;86.37
77939;BME280;67136;47.546;21.630;2023-08-01T03:19:43;99623.41;;;15.67;86.68
77939;BME280;67136;47.546;21.630;2023-08-01T03:22:45;99620.13;;;15.65;87.03
77939;BME280;67136;47.546;21.630;2023-08-01T03:25:49;99622.50;;;15.74;85.78
77939;BME280;67136;47.546;21.630;2023-08-01T03:28:51;99625.50;;;15.71;86.04
77939;BME280;67136;47.546;21.630;2023-08-01T03:31:54;99622.03;;;15.71;85.95
77939;BME280;67136;47.546;21.630;2023-08-01T03:34:56;99619.87;;;15.74;85.70
77939;BME280;67136;47.546;21.630;2023-08-01T03:37:59;99626.34;;;15.72;85.59
77939;BME280;67136;47.546;21.630;2023-08-01T03:41:01;99630.72;;;15.79;85.36
77939;BME280;67136;47.546;21.630;2023-08-01T03:44:06;99623.91;;;15.85;85.18
77939;BME280;67136;47.546;21.630;2023-08-01T03:47:08;99620.47;;;15.84;85.18
77939;BME280;67136;47.546;21.630;2023-08-01T03:50:11;99623.09;;;15.84;85.23
77939;BME280;67136;47.546;21.630;2023-08-01T03:53:16;99628.53;;;15.83;85.14
77939;BME280;67136;47.546;21.630;2023-08-01T03:56:19;99623.81;;;15.78;85.79
77939;BME280;67136;47.546;21.630;2023-08-01T03:59:21;99617.88;;;15.76;85.81
77939;BME280;67136;47.546;21.630;2023-08-01T04:02:24;99619.87;;;15.74;86.17
77939;BME280;67136;47.546;21.630;2023-08-01T04:05:28;99620.22;;;15.71;86.47
77939;BME280;67136;47.546;21.630;2023-08-01T04:08:30;99609.50;;;15.73;86.86
77939;BME280;67136;47.546;21.630;2023-08-01T04:11:33;99608.34;;;15.75;86.48
77939;BME280;67136;47.546;21.630;2023-08-01T04:14:36;99608.47;;;15.82;86.21
77939;BME280;67136;47.546;21.630;2023-08-01T04:17:38;99604.78;;;15.91;86.26
77939;BME280;67136;47.546;21.630;2023-08-01T04:20:41;99611.13;;;15.96;85.57
77939;BME280;67136;47.546;21.630;2023-08-01T04:23:44;99605.97;;;16.03;85.24
77939;BME280;67136;47.546;21.630;2023-08-01T04:26:46;99607.28;;;16.07;84.86
77939;BME280;67136;47.546;21.630;2023-08-01T04:29:49;99615.75;;;16.17;84.53
77939;BME280;67136;47.546;21.630;2023-08-01T04:32:52;99597.56;;;16.22;84.15
77939;BME280;67136;47.546;21.630;2023-08-01T04:35:54;99595.03;;;16.29;83.73
77939;BME280;67136;47.546;21.630;2023-08-01T04:38:57;99595.41;;;16.40;83.21
77939;BME280;67136;47.546;21.630;2023-08-01T04:42:00;99588.44;;;16.47;82.68
77939;BME280;67136;47.546;21.630;2023-08-01T04:45:03;99590.00;;;16.56;82.18
77939;BME280;67136;47.546;21.630;2023-08-01T04:48:06;99594.81;;;16.67;82.00
77939;BME280;67136;47.546;21.630;2023-08-01T04:51:08;99591.72;;;16.78;81.65
77939;BME280;67136;47.546;21.630;2023-08-01T04:54:11;99595.06;;;16.87;80.94
77939;BME280;67136;47.546;21.630;2023-08-01T04:57:13;99596.81;;;16.94;80.64
77939;BME280;67136;47.546;21.630;2023-08-01T05:00:17;99596.31;;;17.05;80.17
77939;BME280;67136;47.546;21.630;2023-08-01T05:03:19;99595.50;;;17.19;79.91
77939;BME280;67136;47.546;21.630;2023-08-01T05:06:22;99596.37;;;17.26;79.83
77939;BME280;67136;47.546;21.630;2023-08-01T05:09:25;99596.91;;;17.36;79.41
77939;BME280;67136;47.546;21.630;2023-08-01T05:12:27;99595.47;;;17.49;79.26
77939;BME280;67136;47.546;21.630;2023-08-01T05:15:30;99594.88;;;17.53;78.96
77939;BME280;67136;47.546;21.630;2023-08-01T05:18:33;99603.25;;;17.57;78.49
77939;BME280;67136;47.546;21.630;2023-08-01T05:21:35;99605.84;;;17.71;78.02
77939;BME280;67136;47.546;21.630;2023-08-01T05:24:38;99595.66;;;17.68;78.30
77939;BME280;67136;47.546;21.630;2023-08-01T05:27:40;99596.59;;;17.82;77.83
77939;BME280;67136;47.546;21.630;2023-08-01T05:30:44;99594.19;;;17.87;77.33
77939;BME280;67136;47.546;21.630;2023-08-01T05:33:47;99584.78;;;18.05;77.03
77939;BME280;67136;47.546;21.630;2023-08-01T05:36:50;99587.97;;;18.22;76.22
77939;BME280;67136;47.546;21.630;2023-08-01T05:39:52;99582.56;;;18.36;75.60
77939;BME280;67136;47.546;21.630;2023-08-01T05:42:55;99580.28;;;18.54;74.94
77939;BME280;67136;47.546;21.630;2023-08-01T05:45:57;99588.50;;;18.66;74.04
77939;BME280;67136;47.546;21.630;2023-08-01T05:49:00;99592.28;;;18.85;73.12
77939;BME280;67136;47.546;21.630;2023-08-01T05:52:03;99594.44;;;19.15;72.07
77939;BME280;67136;47.546;21.630;2023-08-01T05:55:06;99596.81;;;19.44;70.86
77939;BME280;67136;47.546;21.630;2023-08-01T05:58:09;99597.31;;;19.81;69.41
77939;BME280;67136;47.546;21.630;2023-08-01T06:01:11;99592.41;;;20.10;68.59
77939;BME280;67136;47.546;21.630;2023-08-01T06:04:14;99596.94;;;20.29;67.31
77939;BME280;67136;47.546;21.630;2023-08-01T06:07:17;99589.87;;;21.00;64.83
77939;BME280;67136;47.546;21.630;2023-08-01T06:10:25;99595.78;;;22.08;62.67
77939;BME280;67136;47.546;21.630;2023-08-01T06:13:27;99591.47;;;21.83;62.29
77939;BME280;67136;47.546;21.630;2023-08-01T06:16:30;99596.66;;;22.02;61.98
77939;BME280;67136;47.546;21.630;2023-08-01T06:19:33;99599.97;;;21.23;64.35
77939;BME280;67136;47.546;21.630;2023-08-01T06:22:36;99609.50;;;21.81;61.98
77939;BME280;67136;47.546;21.630;2023-08-01T06:25:38;99609.09;;;21.77;62.38
77939;BME280;67136;47.546;21.630;2023-08-01T06:28:41;99603.63;;;22.03;61.81
77939;BME280;67136;47.546;21.630;2023-08-01T06:31:44;99605.28;;;21.98;62.05
77939;BME280;67136;47.546;21.630;2023-08-01T06:34:47;99601.75;;;22.29;60.28
77939;BME280;67136;47.546;21.630;2023-08-01T06:37:49;99603.19;;;23.87;56.73
77939;BME280;67136;47.546;21.630;2023-08-01T06:40:52;99592.72;;;23.45;56.56
77939;BME280;67136;47.546;21.630;2023-08-01T06:43:54;99600.38;;;22.87;57.66
77939;BME280;67136;47.546;21.630;2023-08-01T06:46:57;99600.09;;;23.13;57.10
77939;BME280;67136;47.546;21.630;2023-08-01T06:49:59;99595.34;;;23.15;56.84
77939;BME280;67136;47.546;21.630;2023-08-01T06:53:02;99591.84;;;22.78;57.67
77939;BME280;67136;47.546;21.630;2023-08-01T06:56:04;99588.59;;;22.94;56.83
77939;BME280;67136;47.546;21.630;2023-08-01T06:59:07;99579.66;;;22.71;57.90
77939;BME280;67136;47.546;21.630;2023-08-01T07:02:10;99586.97;;;22.93;57.45
77939;BME280;67136;47.546;21.630;2023-08-01T07:05:13;99581.69;;;23.41;56.17
77939;BME280;67136;47.546;21.630;2023-08-01T07:08:15;99573.66;;;23.41;55.69
77939;BME280;67136;47.546;21.630;2023-08-01T07:11:18;99582.03;;;23.45;55.04
77939;BME280;67136;47.546;21.630;2023-08-01T07:14:21;99576.94;;;23.07;56.13
77939;BME280;67136;47.546;21.630;2023-08-01T07:17:24;99575.25;;;23.60;54.87
77939;BME280;67136;47.546;21.630;2023-08-01T07:20:26;99577.72;;;24.37;53.54
77939;BME280;67136;47.546;21.630;2023-08-01T07:23:30;99581.63;;;24.93;52.07
77939;BME280;67136;47.546;21.630;2023-08-01T07:26:32;99584.91;;;24.25;52.35
77939;BME280;67136;47.546;21.630;2023-08-01T07:29:36;99594.19;;;24.34;52.78
77939;BME280;67136;47.546;21.630;2023-08-01T07:32:38;99586.94;;;25.44;50.00
77939;BME280;67136;47.546;21.630;2023-08-01T07:35:41;99591.66;;;25.82;48.52
77939;BME280;67136;47.546;21.630;2023-08-01T07:38:44;99588.34;;;25.91;48.61
77939;BME280;67136;47.546;21.630;2023-08-01T07:41:46;99588.56;;;25.73;47.47
77939;BME280;67136;47.546;21.630;2023-08-01T07:44:49;99588.38;;;25.63;47.60
77939;BME280;67136;47.546;21.630;2023-08-01T07:47:51;99586.72;;;25.34;48.76
77939;BME280;67136;47.546;21.630;2023-08-01T07:50:54;99584.88;;;25.34;48.98
77939;BME280;67136;47.546;21.630;2023-08-01T07:53:57;99584.53;;;25.70;47.54
77939;BME280;67136;47.546;21.630;2023-08-01T07:56:59;99588.84;;;26.92;45.26
77939;BME280;67136;47.546;21.630;2023-08-01T08:00:02;99592.84;;;25.74;47.48
77939;BME280;67136;47.546;21.630;2023-08-01T08:03:14;99591.19;;;26.01;46.66
77939;BME280;67136;47.546;21.630;2023-08-01T08:06:17;99585.22;;;26.65;44.56
77939;BME280;67136;47.546;21.630;2023-08-01T08:09:19;99587.06;;;26.81;43.75
77939;BME280;67136;47.546;21.630;2023-08-01T08:12:22;99585.00;;;27.80;41.91
77939;BME280;67136;47.546;21.630;2023-08-01T08:15:25;99589.28;;;28.86;39.79
77939;BME280;67136;47.546;21.630;2023-08-01T08:18:28;99585.78;;;28.44;39.67
77939;BME280;67136;47.546;21.630;2023-08-01T08:21:31;99572.88;;;30.39;36.47
77939;BME280;67136;47.546;21.630;2023-08-01T08:24:34;99576.84;;;31.90;34.24
77939;BME280;67136;47.546;21.630;2023-08-01T08:27:39;99575.81;;;29.58;36.51
77939;BME280;67136;47.546;21.630;2023-08-01T08:30:42;99572.06;;;31.77;34.11
77939;BME280;67136;47.546;21.630;2023-08-01T08:33:44;99572.38;;;32.09;32.59
77939;BME280;67136;47.546;21.630;2023-08-01T08:36:47;99563.44;;;31.70;32.55
77939;BME280;67136;47.546;21.630;2023-08-01T08:39:52;99568.94;;;33.26;29.67
77939;BME280;67136;47.546;21.630;2023-08-01T08:42:55;99561.81;;;31.74;31.22
77939;BME280;67136;47.546;21.630;2023-08-01T08:46:00;99561.91;;;34.13;28.82
77939;BME280;67136;47.546;21.630;2023-08-01T08:49:04;99561.09;;;31.97;30.68
77939;BME280;67136;47.546;21.630;2023-08-01T08:52:07;99556.97;;;31.66;31.32
77939;BME280;67136;47.546;21.630;2023-08-01T08:55:11;99547.50;;;33.06;28.91
77939;BME280;67136;47.546;21.630;2023-08-01T08:58:15;99551.31;;;32.58;29.17
77939;BME280;67136;47.546;21.630;2023-08-01T09:01:18;99554.72;;;32.45;28.33
77939;BME280;67136;47.546;21.630;2023-08-01T09:04:21;99550.25;;;31.63;29.68
77939;BME280;67136;47.546;21.630;2023-08-01T09:07:26;99541.09;;;31.10;30.59
77939;BME280;67136;47.546;21.630;2023-08-01T09:10:32;99532.16;;;31.97;29.29
77939;BME280;67136;47.546;21.630;2023-08-01T09:13:34;99523.97;;;35.44;25.12
77939;BME280;67136;47.546;21.630;2023-08-01T09:16:39;99522.19;;;31.05;30.23
77939;BME280;67136;47.546;21.630;2023-08-01T09:19:42;99521.16;;;34.72;25.39
77939;BME280;67136;47.546;21.630;2023-08-01T09:22:46;99511.19;;;36.10;24.55
77939;BME280;67136;47.546;21.630;2023-08-01T09:25:49;99527.06;;;34.34;26.71
77939;BME280;67136;47.546;21.630;2023-08-01T09:28:56;99516.34;;;32.33;28.27
77939;BME280;67136;47.546;21.630;2023-08-01T09:31:59;99520.78;;;33.87;26.09
77939;BME280;67136;47.546;21.630;2023-08-01T09:35:02;99510.94;;;33.04;27.59
77939;BME280;67136;47.546;21.630;2023-08-01T09:38:06;99508.69;;;34.44;25.87
77939;BME280;67136;47.546;21.630;2023-08-01T09:41:19;99508.94;;;31.91;29.11
77939;BME280;67136;47.546;21.630;2023-08-01T09:44:22;99494.84;;;32.70;28.18
77939;BME280;67136;47.546;21.630;2023-08-01T09:47:36;99488.84;;;31.30;29.33
77939;BME280;67136;47.546;21.630;2023-08-01T09:50:39;99488.09;;;31.19;29.78
77939;BME280;67136;47.546;21.630;2023-08-01T09:53:56;99488.06;;;32.49;27.93
77939;BME280;67136;47.546;21.630;2023-08-01T09:57:00;99489.66;;;31.25;29.21
77939;BME280;67136;47.546;21.630;2023-08-01T10:00:07;99489.34;;;33.54;26.70
77939;BME280;67136;47.546;21.630;2023-08-01T10:03:13;99478.19;;;34.74;24.70
77939;BME280;67136;47.546;21.630;2023-08-01T10:06:21;99487.22;;;33.51;25.58
77939;BME280;67136;47.546;21.630;2023-08-01T10:09:24;99489.63;;;33.34;26.17
77939;BME280;67136;47.546;21.630;2023-08-01T10:12:27;99480.00;;;32.67;26.52
77939;BME280;67136;47.546;21.630;2023-08-01T10:15:31;99471.78;;;33.65;25.61
77939;BME280;67136;47.546;21.630;2023-08-01T10:18:34;99453.16;;;34.50;24.68
77939;BME280;67136;47.546;21.630;2023-08-01T10:21:41;99461.63;;;33.57;25.28
77939;BME280;67136;47.546;21.630;2023-08-01T10:24:46;99451.72;;;35.16;24.15
77939;BME280;67136;47.546;21.630;2023-08-01T10:28:03;99449.47;;;36.37;22.73
77939;BME280;67136;47.546;21.630;2023-08-01T10:31:16;99446.88;;;36.96;22.30
77939;BME280;67136;47.546;21.630;2023-08-01T10:34:19;99431.22;;;34.47;24.17
77939;BME280;67136;47.546;21.630;2023-08-01T10:37:26;99452.66;;;33.43;24.79
77939;BME280;67136;47.546;21.630;2023-08-01T10:40:36;99442.81;;;35.24;22.91
77939;BME280;67136;47.546;21.630;2023-08-01T10:43:39;99431.47;;;37.09;20.85
77939;BME280;67136;47.546;21.630;2023-08-01T10:46:52;99429.06;;;37.24;21.05
77939;BME280;67136;47.546;21.630;2023-08-01T10:49:56;99430.78;;;37.63;20.56
77939;BME280;67136;47.546;21.630;2023-08-01T10:53:08;99419.91;;;37.12;20.87
77939;BME280;67136;47.546;21.630;2023-08-01T10:56:16;99413.50;;;36.91;21.45
77939;BME280;67136;47.546;21.630;2023-08-01T10:59:21;99414.31;;;35.87;21.85
77939;BME280;67136;47.546;21.630;2023-08-01T11:02:26;99405.78;;;36.76;20.94
77939;BME280;67136;47.546;21.630;2023-08-01T11:05:29;99402.06;;;38.41;19.37
77939;BME280;67136;47.546;21.630;2023-08-01T11:08:39;99397.72;;;36.54;21.06
77939;BME280;67136;47.546;21.630;2023-08-01T11:11:42;99392.34;;;35.31;22.07
77939;BME280;67136;47.546;21.630;2023-08-01T11:14:46;99392.94;;;34.70;22.85
77939;BME280;67136;47.546;21.630;2023-08-01T11:17:51;99388.88;;;35.17;22.10
77939;BME280;67136;47.546;21.630;2023-08-01T11:20:54;99384.69;;;35.11;22.34
77939;BME280;67136;47.546;21.630;2023-08-01T11:23:57;99374.88;;;37.69;20.08
77939;BME280;67136;47.546;21.630;2023-08-01T11:27:00;99367.28;;;36.69;21.07
77939;BME280;67136;47.546;21.630;2023-08-01T11:30:03;99360.41;;;37.05;21.01
77939;BME280;67136;47.546;21.630;2023-08-01T11:33:20;99355.34;;;38.54;19.25
77939;BME280;67136;47.546;21.630;2023-08-01T11:36:27;99350.56;;;39.25;18.42
77939;BME280;67136;47.546;21.630;2023-08-01T11:39:30;99349.91;;;37.50;19.83
77939;BME280;67136;47.546;21.630;2023-08-01T11:42:32;99346.59;;;37.27;19.93
77939;BME280;67136;47.546;21.630;2023-08-01T11:45:36;99332.28;;;37.39;19.20
77939;BME280;67136;47.546;21.630;2023-08-01T11:48:38;99328.94;;;36.40;20.21
77939;BME280;67136;47.546;21.630;2023-08-01T11:51:43;99331.00;;;35.78;20.54
77939;BME280;67136;47.546;21.630;2023-08-01T11:54:45;99321.28;;;38.31;18.37
77939;BME280;67136;47.546;21.630;2023-08-01T11:57:55;99325.38;;;36.13;20.58
77939;BME280;67136;47.546;21.630;2023-08-01T12:01:10;99326.84;;;33.71;22.87
77939;BME280;67136;47.546;21.630;2023-08-01T12:04:26;99314.56;;;35.52;20.83
77939;BME280;67136;47.546;21.630;2023-08-01T12:07:29;99323.59;;;36.17;20.45
77939;BME280;67136;47.546;21.630;2023-08-01T12:10:42;99310.16;;;37.78;18.70
77939;BME280;67136;47.546;21.630;2023-08-01T12:13:45;99297.31;;;36.04;19.33
77939;BME280;67136;47.546;21.630;2023-08-01T12:16:48;99302.34;;;34.75;21.10
77939;BME280;67136;47.546;21.630;2023-08-01T12:19:51;99294.38;;;37.46;19.20
77939;BME280;67136;47.546;21.630;2023-08-01T12:22:53;99295.41;;;35.35;21.21
77939;BME280;67136;47.546;21.630;2023-08-01T12:25:56;99285.00;;;34.27;22.91
77939;BME280;67136;47.546;21.630;2023-08-01T12:28:58;99284.41;;;33.35;23.82
77939;BME280;67136;47.546;21.630;2023-08-01T12:32:04;99284.78;;;32.64;24.46
77939;BME280;67136;47.546;21.630;2023-08-01T12:35:09;99278.81;;;33.85;22.27
77939;BME280;67136;47.546;21.630;2023-08-01T12:38:12;99269.59;;;34.93;21.55
77939;BME280;67136;47.546;21.630;2023-08-01T12:41:14;99274.47;;;36.40;19.91
77939;BME280;67136;47.546;21.630;2023-08-01T12:44:17;99276.47;;;34.20;21.68
77939;BME280;67136;47.546;21.630;2023-08-01T12:47:20;99265.31;;;36.87;20.00
77939;BME280;67136;47.546;21.630;2023-08-01T12:50:23;99254.37;;;37.04;20.16
77939;BME280;67136;47.546;21.630;2023-08-01T12:53:26;99254.09;;;33.73;22.94
77939;BME280;67136;47.546;21.630;2023-08-01T12:56:29;99255.31;;;35.41;21.83
77939;BME280;67136;47.546;21.630;2023-08-01T12:59:31;99241.63;;;37.33;19.58
77939;BME280;67136;47.546;21.630;2023-08-01T13:02:33;99245.34;;;34.83;22.58
77939;BME280;67136;47.546;21.630;2023-08-01T13:05:37;99228.50;;;35.65;21.50
77939;BME280;67136;47.546;21.630;2023-08-01T13:08:40;99229.03;;;35.36;21.64
77939;BME280;67136;47.546;21.630;2023-08-01T13:11:46;99225.22;;;33.91;23.04
77939;BME280;67136;47.546;21.630;2023-08-01T13:14:48;99212.56;;;34.36;22.81
77939;BME280;67136;47.546;21.630;2023-08-01T13:17:53;99217.97;;;34.49;22.82
77939;BME280;67136;47.546;21.630;2023-08-01T13:20:59;99222.41;;;32.69;25.29
77939;BME280;67136;47.546;21.630;2023-08-01T13:24:02;99204.38;;;33.64;24.19
77939;BME280;67136;47.546;21.630;2023-08-01T13:27:07;99195.66;;;35.53;22.00
77939;BME280;67136;47.546;21.630;2023-08-01T13:30:12;99205.47;;;32.77;24.66
77939;BME280;67136;47.546;21.630;2023-08-01T13:33:20;99178.34;;;33.36;23.76
77939;BME280;67136;47.546;21.630;2023-08-01T13:36:24;99184.56;;;33.64;24.00
77939;BME280;67136;47.546;21.630;2023-08-01T13:39:26;99181.56;;;31.73;26.25
77939;BME280;67136;47.546;21.630;2023-08-01T13:42:29;99176.91;;;31.12;26.89
77939;BME280;67136;47.546;21.630;2023-08-01T13:45:32;99178.19;;;31.20;27.11
77939;BME280;67136;47.546;21.630;2023-08-01T13:48:35;99183.97;;;31.55;27.15
77939;BME280;67136;47.546;21.630;2023-08-01T13:51:38;99172.53;;;32.01;26.12
77939;BME280;67136;47.546;21.630;2023-08-01T13:54:40;99166.88;;;30.89;27.02
77939;BME280;67136;47.546;21.630;2023-08-01T13:57:43;99166.38;;;31.11;26.65
77939;BME280;67136;47.546;21.630;2023-08-01T14:00:46;99157.56;;;32.08;25.94
77939;BME280;67136;47.546;21.630;2023-08-01T14:03:48;99145.47;;;30.69;28.12
77939;BME280;67136;47.546;21.630;2023-08-01T14:06:51;99135.62;;;30.16;29.60
77939;BME280;67136;47.546;21.630;2023-08-01T14:09:54;99152.88;;;29.12;30.52
77939;BME280;67136;47.546;21.630;2023-08-01T14:12:56;99134.91;;;29.62;29.70
77939;BME280;67136;47.546;21.630;2023-08-01T14:16:02;99135.13;;;29.75;29.65
77939;BME280;67136;47.546;21.630;2023-08-01T14:19:05;99137.19;;;30.27;29.06
77939;BME280;67136;47.546;21.630;2023-08-01T14:22:08;99135.78;;;30.63;28.52
77939;BME280;67136;47.546;21.630;2023-08-01T14:25:11;99139.50;;;30.05;29.12
77939;BME280;67136;47.546;21.630;2023-08-01T14:28:14;99129.50;;;29.62;28.69
77939;BME280;67136;47.546;21.630;2023-08-01T14:31:16;99137.69;;;30.34;27.97
77939;BME280;67136;47.546;21.630;2023-08-01T14:34:19;99132.97;;;31.25;26.58
77939;BME280;67136;47.546;21.630;2023-08-01T14:37:22;99128.72;;;30.05;28.20
77939;BME280;67136;47.546;21.630;2023-08-01T14:40:26;99131.47;;;29.46;29.22
77939;BME280;67136;47.546;21.630;2023-08-01T14:43:29;99123.59;;;29.55;28.80
77939;BME280;67136;47.546;21.630;2023-08-01T14:46:32;99115.41;;;29.26;29.39
77939;BME280;67136;47.546;21.630;2023-08-01T14:49:34;99117.06;;;29.02;29.97
77939;BME280;67136;47.546;21.630;2023-08-01T14:52:37;99102.88;;;29.55;29.43
77939;BME280;67136;47.546;21.630;2023-08-01T14:55:40;99105.75;;;29.20;30.42
77939;BME280;67136;47.546;21.630;2023-08-01T14:58:44;99102.16;;;29.35;30.76
77939;BME280;67136;47.546;21.630;2023-08-01T15:01:47;99092.09;;;28.91;31.50
77939;BME280;67136;47.546;21.630;2023-08-01T15:04:54;99089.62;;;28.95;31.37
77939;BME280;67136;47.546;21.630;2023-08-01T15:07:59;99108.56;;;28.45;30.96
77939;BME280;67136;47.546;21.630;2023-08-01T15:11:06;99094.34;;;28.54;30.55
77939;BME280;67136;47.546;21.630;2023-08-01T15:14:08;99095.94;;;28.55;30.19
77939;BME280;67136;47.546;21.630;2023-08-01T15:17:11;99086.00;;;28.11;30.92
77939;BME280;67136;47.546;21.630;2023-08-01T15:20:13;99085.47;;;28.14;30.94
77939;BME280;67136;47.546;21.630;2023-08-01T15:23:19;99087.31;;;28.18;30.58
77939;BME280;67136;47.546;21.630;2023-08-01T15:26:21;99091.09;;;28.07;30.87
77939;BME280;67136;47.546;21.630;2023-08-01T15:29:24;99086.75;;;27.81;31.08
77939;BME280;67136;47.546;21.630;2023-08-01T15:32:27;99085.72;;;28.02;31.12
77939;BME280;67136;47.546;21.630;2023-08-01T15:35:29;99083.50;;;27.64;31.60
77939;BME280;67136;47.546;21.630;2023-08-01T15:38:33;99082.47;;;27.85;31.67
77939;BME280;67136;47.546;21.630;2023-08-01T15:41:36;99087.00;;;27.69;31.82
77939;BME280;67136;47.546;21.630;2023-08-01T15:44:38;99094.00;;;27.75;31.91
77939;BME280;67136;47.546;21.630;2023-08-01T15:47:41;99101.81;;;27.87;31.63
77939;BME280;67136;47.546;21.630;2023-08-01T15:50:43;99099.59;;;27.59;31.58
77939;BME280;67136;47.546;21.630;2023-08-01T15:53:47;99095.31;;;27.63;31.69
77939;BME280;67136;47.546;21.630;2023-08-01T15:56:50;99084.53;;;27.43;32.26
77939;BME280;67136;47.546;21.630;2023-08-01T15:59:55;99073.47;;;27.29;32.81